Time;durP1;ratioP1;P1;durP2;ratioP2;P2;SDS_P1;SDS_P2;PMS_P1;PMS_P2;Temp;Humidity;BMP_temperature;BMP_pressure;BME280_temperature;BME280_humidity;BME280_pressure;Samples;Min_cycle;Max_cycle;Signal;HPM_P1;HPM_P2
2022/03/09 00:00:27;;;;;;;8.90;8.00;;;8.40;40.70;;;;;;5014823;28;20446;-70
2022/03/09 00:02:54;;;;;;;15.43;10.40;;;8.40;40.70;;;;;;5014804;28;20443;-70
2022/03/09 00:05:22;;;;;;;11.80;9.00;;;8.40;40.70;;;;;;5014732;28;20451;-70
2022/03/09 00:07:48;;;;;;;10.47;9.10;;;8.40;40.80;;;;;;5014390;28;20974;-70
2022/03/09 00:10:15;;;;;;;10.20;9.20;;;8.30;40.80;;;;;;5014725;28;20451;-70
2022/03/09 00:12:42;;;;;;;12.00;9.57;;;8.30;41.00;;;;;;5014671;28;20797;-70
2022/03/09 00:15:10;;;;;;;13.00;9.50;;;8.20;41.00;;;;;;5015058;28;20491;-70
2022/03/09 00:17:37;;;;;;;13.60;9.87;;;8.20;41.10;;;;;;5014472;28;20474;-70
2022/03/09 00:20:05;;;;;;;11.10;8.47;;;8.20;41.50;;;;;;5014578;28;20435;-70
2022/03/09 00:22:33;;;;;;;11.10;8.73;;;8.10;41.60;;;;;;5014121;28;20806;-70
2022/03/09 00:25:00;;;;;;;10.30;8.27;;;8.10;41.80;;;;;;5014421;28;20459;-70
2022/03/09 00:27:26;;;;;;;10.73;8.00;;;8.10;41.90;;;;;;5014089;28;20828;-70
2022/03/09 00:29:53;;;;;;;10.00;8.13;;;8.00;41.90;;;;;;5014380;28;20444;-70
2022/03/09 00:32:20;;;;;;;11.70;8.27;;;8.00;41.90;;;;;;5014041;28;20454;-70
2022/03/09 00:34:46;;;;;;;13.50;9.40;;;8.00;41.80;;;;;;5014142;28;20479;-70
2022/03/09 00:37:14;;;;;;;9.93;8.47;;;7.90;41.60;;;;;;5016732;28;20479;-70
2022/03/09 00:39:43;;;;;;;10.97;8.73;;;7.90;41.80;;;;;;5018072;28;20463;-70
2022/03/09 00:42:11;;;;;;;12.40;8.93;;;7.90;41.70;;;;;;5018157;28;20470;-70
2022/03/09 00:44:38;;;;;;;11.80;9.90;;;7.90;41.50;;;;;;5014597;28;20863;-69
2022/03/09 00:47:05;;;;;;;10.90;9.70;;;7.80;41.40;;;;;;5014038;28;20479;-69
2022/03/09 00:49:32;;;;;;;14.33;8.23;;;7.80;41.60;;;;;;5013802;28;20785;-70
2022/03/09 00:51:59;;;;;;;10.63;9.10;;;7.80;41.80;;;;;;5013984;28;20466;-69
2022/03/09 00:54:25;;;;;;;11.03;8.37;;;7.70;41.80;;;;;;5013869;28;20487;-70
2022/03/09 00:56:53;;;;;;;10.30;8.60;;;7.70;41.80;;;;;;5013793;28;20468;-69
2022/03/09 00:59:20;;;;;;;12.43;9.00;;;7.60;42.30;;;;;;5013841;28;20458;-69
2022/03/09 01:01:47;;;;;;;8.83;7.93;;;7.50;42.70;;;;;;5013832;28;20474;-70
2022/03/09 01:04:13;;;;;;;11.63;10.00;;;7.40;43.00;;;;;;5013107;28;20443;-70
2022/03/09 01:06:40;;;;;;;11.07;9.07;;;7.30;43.30;;;;;;5013056;28;20463;-69
2022/03/09 01:09:07;;;;;;;10.40;8.67;;;7.30;43.60;;;;;;5013779;28;20450;-69
2022/03/09 01:11:34;;;;;;;11.03;8.97;;;7.20;43.80;;;;;;5013489;28;20954;-70
2022/03/09 01:14:02;;;;;;;10.00;9.00;;;7.10;43.90;;;;;;5013607;28;20479;-69
2022/03/09 01:16:28;;;;;;;9.73;8.30;;;7.10;43.90;;;;;;5013405;28;21000;-69
2022/03/09 01:18:55;;;;;;;10.53;8.93;;;7.10;44.00;;;;;;5013648;28;20447;-69
2022/03/09 01:21:22;;;;;;;10.93;8.77;;;7.00;44.00;;;;;;5013737;28;20438;-69
2022/03/09 01:23:48;;;;;;;13.10;9.40;;;7.00;44.10;;;;;;5013649;28;20462;-69
2022/03/09 01:26:15;;;;;;;11.90;8.97;;;6.90;44.10;;;;;;5013305;28;21020;-69
2022/03/09 01:28:42;;;;;;;11.30;8.90;;;6.90;44.20;;;;;;5013587;28;20446;-70
2022/03/09 01:31:10;;;;;;;10.97;9.23;;;6.80;44.30;;;;;;5013313;28;20933;-69
2022/03/09 01:33:37;;;;;;;12.00;9.03;;;6.80;44.50;;;;;;5013431;28;20483;-70
2022/03/09 01:36:04;;;;;;;10.23;8.50;;;6.70;44.80;;;;;;5013251;28;20482;-69
2022/03/09 01:38:30;;;;;;;9.47;8.33;;;6.60;45.00;;;;;;5013307;28;20443;-70
2022/03/09 01:40:57;;;;;;;11.50;9.30;;;6.60;45.40;;;;;;5013170;28;20490;-70
2022/03/09 01:43:24;;;;;;;9.37;8.23;;;6.50;45.70;;;;;;5013440;28;20454;-70
2022/03/09 01:45:50;;;;;;;9.90;8.40;;;6.40;45.90;;;;;;5013333;28;20471;-69
2022/03/09 01:48:18;;;;;;;12.30;8.03;;;6.40;46.10;;;;;;5013463;28;20454;-69
2022/03/09 01:50:46;;;;;;;9.93;8.80;;;6.30;46.40;;;;;;5013379;28;20454;-69
2022/03/09 01:53:13;;;;;;;10.37;9.27;;;6.20;46.70;;;;;;5013374;28;20805;-70
2022/03/09 01:55:41;;;;;;;9.03;8.13;;;6.20;47.00;;;;;;5013195;28;20486;-69
2022/03/09 01:58:07;;;;;;;11.17;8.20;;;6.10;47.10;;;;;;5013276;28;20463;-70
2022/03/09 02:00:34;;;;;;;9.00;7.97;;;6.10;47.30;;;;;;5013017;28;20972;-70
2022/03/09 02:03:01;;;;;;;10.67;9.27;;;6.10;47.70;;;;;;5013019;28;20466;-69
2022/03/09 02:05:29;;;;;;;10.73;8.10;;;6.00;47.70;;;;;;5013149;28;20454;-69
2022/03/09 02:10:41;;;;;;;10.77;8.33;;;6.00;47.90;;;;;;5013248;28;20447;-69
2022/03/09 02:13:08;;;;;;;11.47;7.97;;;5.90;47.80;;;;;;5013169;28;20462;-69
2022/03/09 02:15:35;;;;;;;9.80;8.53;;;5.90;47.80;;;;;;5013001;28;20513;-69
2022/03/09 02:18:02;;;;;;;10.83;8.57;;;5.90;47.80;;;;;;5016090;28;20451;-69
2022/03/09 02:20:30;;;;;;;10.00;8.43;;;5.90;47.80;;;;;;5016749;28;20439;-69
2022/03/09 02:22:58;;;;;;;11.60;9.00;;;5.90;48.00;;;;;;5016399;28;20455;-69
2022/03/09 02:25:25;;;;;;;11.70;8.30;;;5.90;48.10;;;;;;5016358;28;20949;-69
2022/03/09 02:27:52;;;;;;;8.87;7.97;;;5.80;48.30;;;;;;5016235;28;20471;-69
2022/03/09 02:30:20;;;;;;;9.30;7.60;;;5.80;48.40;;;;;;5016233;28;20447;-69
2022/03/09 02:32:48;;;;;;;11.23;8.70;;;5.70;48.40;;;;;;5016575;28;20454;-69
2022/03/09 02:35:17;;;;;;;11.97;8.23;;;5.70;48.60;;;;;;5015923;28;20502;-69
2022/03/09 02:37:44;;;;;;;10.03;7.83;;;5.70;48.70;;;;;;5016370;28;20497;-70
2022/03/09 02:40:15;;;;;;;9.80;8.50;;;5.70;48.60;;;;;;5016444;28;20452;-70
2022/03/09 02:42:43;;;;;;;11.13;9.20;;;5.70;48.70;;;;;;5016387;28;20432;-70
2022/03/09 02:45:12;;;;;;;11.33;8.10;;;5.70;48.80;;;;;;5016271;28;20448;-69
2022/03/09 02:47:40;;;;;;;13.07;9.20;;;5.70;48.80;;;;;;5016177;28;20475;-69
2022/03/09 02:50:07;;;;;;;10.93;8.43;;;5.70;48.70;;;;;;5016205;28;20488;-70
2022/03/09 02:52:38;;;;;;;10.80;8.23;;;5.70;48.60;;;;;;5016115;28;20452;-69
2022/03/09 02:55:05;;;;;;;14.47;9.30;;;5.70;48.60;;;;;;5015985;28;20548;-70
2022/03/09 02:57:33;;;;;;;12.70;8.60;;;5.70;48.40;;;;;;5016129;28;20471;-69
2022/03/09 03:00:00;;;;;;;14.70;9.87;;;5.70;48.40;;;;;;5016039;28;20451;-69
2022/03/09 03:02:27;;;;;;;14.00;9.40;;;5.70;48.30;;;;;;5015922;28;20443;-70
2022/03/09 03:04:54;;;;;;;12.23;8.50;;;5.70;48.20;;;;;;5015976;28;20434;-69
2022/03/09 03:07:20;;;;;;;13.43;9.70;;;5.70;48.20;;;;;;5015562;28;21021;-70
2022/03/09 03:09:47;;;;;;;12.83;8.80;;;5.80;48.20;;;;;;5015883;28;20454;-70
2022/03/09 03:12:14;;;;;;;11.10;8.90;;;5.80;48.10;;;;;;5015769;28;20451;-70
2022/03/09 03:14:42;;;;;;;10.67;7.53;;;5.80;48.10;;;;;;5015631;28;20487;-70
2022/03/09 03:17:08;;;;;;;13.40;9.50;;;5.80;48.00;;;;;;5015361;28;20471;-69
2022/03/09 03:19:35;;;;;;;12.03;8.73;;;5.80;48.00;;;;;;5015666;28;20447;-69
2022/03/09 03:22:02;;;;;;;13.73;9.30;;;5.80;48.00;;;;;;5015549;28;20486;-70
2022/03/09 03:24:29;;;;;;;11.40;9.00;;;5.80;47.90;;;;;;5015496;28;20459;-70
2022/03/09 03:26:55;;;;;;;10.93;9.20;;;5.90;47.80;;;;;;5015432;28;20482;-69
2022/03/09 03:29:22;;;;;;;9.30;7.93;;;5.80;47.50;;;;;;5014220;28;20846;-69
2022/03/09 03:31:50;;;;;;;12.93;8.43;;;5.90;48.30;;;;;;5015102;28;20810;-69
2022/03/09 03:34:17;;;;;;;11.73;8.73;;;5.90;47.80;;;;;;5015069;28;20934;-70
2022/03/09 03:36:44;;;;;;;13.17;7.90;;;5.90;47.80;;;;;;5015094;28;20498;-69
2022/03/09 03:39:10;;;;;;;10.10;8.37;;;5.90;47.60;;;;;;5014940;28;20969;-70
2022/03/09 03:41:37;;;;;;;9.27;7.20;;;5.90;47.70;;;;;;5015188;28;20506;-69
2022/03/09 03:44:04;;;;;;;9.13;7.97;;;5.90;47.70;;;;;;5015150;28;20482;-70
2022/03/09 03:46:31;;;;;;;11.37;7.30;;;5.90;47.70;;;;;;5015047;28;20463;-69
2022/03/09 03:48:59;;;;;;;10.33;7.40;;;5.90;47.80;;;;;;5015126;28;20829;-69
2022/03/09 03:51:26;;;;;;;9.10;8.20;;;5.90;47.80;;;;;;5015035;28;20440;-69
2022/03/09 03:53:53;;;;;;;10.03;8.40;;;5.90;47.70;;;;;;5015001;28;20549;-69
2022/03/09 03:56:19;;;;;;;9.83;8.60;;;5.90;47.60;;;;;;5014802;28;20483;-69
2022/03/09 03:58:46;;;;;;;10.20;7.70;;;5.90;47.50;;;;;;5014585;28;20841;-70
2022/03/09 04:01:13;;;;;;;11.57;8.23;;;5.90;47.60;;;;;;5014525;28;20447;-70
2022/03/09 04:03:39;;;;;;;10.03;7.10;;;5.90;47.50;;;;;;5014858;28;20459;-69
2022/03/09 04:06:07;;;;;;;8.70;7.70;;;5.90;47.60;;;;;;5014734;28;20482;-69
2022/03/09 04:08:34;;;;;;;8.70;7.80;;;5.90;47.90;;;;;;5014801;28;20458;-69
2022/03/09 04:11:01;;;;;;;8.53;7.47;;;5.80;47.80;;;;;;5014403;28;20920;-70
2022/03/09 04:13:28;;;;;;;11.10;8.90;;;5.80;47.90;;;;;;5015470;28;20448;-70
2022/03/09 04:15:54;;;;;;;9.40;7.50;;;5.80;48.00;;;;;;5014498;28;20494;-69
2022/03/09 04:18:21;;;;;;;10.20;7.43;;;5.70;48.00;;;;;;5014545;28;20462;-69
2022/03/09 04:20:48;;;;;;;10.33;8.20;;;5.70;47.90;;;;;;5014184;28;20456;-70
2022/03/09 04:23:16;;;;;;;13.70;8.20;;;5.60;47.80;;;;;;5014534;28;20454;-70
2022/03/09 04:25:42;;;;;;;13.30;7.23;;;5.60;48.10;;;;;;5014339;28;20447;-69
2022/03/09 04:28:09;;;;;;;10.80;8.20;;;5.60;48.50;;;;;;5014409;28;20443;-70
2022/03/09 04:30:36;;;;;;;12.50;7.70;;;5.50;48.50;;;;;;5014428;28;20454;-70
2022/03/09 04:33:02;;;;;;;13.90;8.20;;;5.50;48.60;;;;;;5014357;28;20450;-70
2022/03/09 04:35:29;;;;;;;9.90;8.10;;;5.50;48.50;;;;;;5013861;28;20486;-69
2022/03/09 04:37:56;;;;;;;13.03;8.33;;;5.40;48.70;;;;;;5013968;28;20444;-70
2022/03/09 04:40:24;;;;;;;9.20;7.87;;;5.40;48.90;;;;;;5013978;28;20554;-70
2022/03/09 04:42:51;;;;;;;10.37;7.80;;;5.40;49.00;;;;;;5014172;28;20459;-70
2022/03/09 04:45:17;;;;;;;12.67;8.57;;;5.40;48.90;;;;;;5014120;28;20809;-70
2022/03/09 04:47:44;;;;;;;11.03;8.27;;;5.30;48.90;;;;;;5014024;28;20467;-69
2022/03/09 04:50:11;;;;;;;9.00;7.30;;;5.30;49.00;;;;;;5014039;28;20451;-70
2022/03/09 04:52:38;;;;;;;10.20;7.83;;;5.30;49.10;;;;;;5014034;28;20478;-70
2022/03/09 04:55:06;;;;;;;12.33;9.07;;;5.20;49.10;;;;;;5013914;28;20491;-70
2022/03/09 04:57:36;;;;;;;13.10;9.63;;;5.20;49.10;;;;;;5013835;28;20476;-69
2022/03/09 05:00:04;;;;;;;10.70;8.60;;;5.20;49.20;;;;;;5013888;28;20451;-70
2022/03/09 05:02:31;;;;;;;12.10;8.40;;;5.20;49.40;;;;;;5013522;28;20486;-69
2022/03/09 05:04:58;;;;;;;11.50;8.70;;;5.20;49.60;;;;;;5013690;28;20451;-69
2022/03/09 05:07:24;;;;;;;9.20;8.23;;;5.20;49.70;;;;;;5013572;28;20474;-69
2022/03/09 05:09:51;;;;;;;16.73;9.10;;;5.20;49.70;;;;;;5013776;28;20447;-70
2022/03/09 05:12:18;;;;;;;16.90;8.80;;;5.20;49.80;;;;;;5013753;28;20804;-70
2022/03/09 05:14:46;;;;;;;10.13;8.73;;;5.20;49.90;;;;;;5013598;28;20439;-69
2022/03/09 05:17:13;;;;;;;13.07;9.20;;;5.20;49.90;;;;;;5013312;28;20467;-69
2022/03/09 05:19:39;;;;;;;13.97;8.07;;;5.10;49.90;;;;;;5013699;28;20451;-69
2022/03/09 05:22:06;;;;;;;9.57;7.73;;;5.10;49.80;;;;;;5013676;28;20455;-69
2022/03/09 05:24:33;;;;;;;12.73;8.63;;;5.10;49.80;;;;;;5013686;28;20436;-69
2022/03/09 05:26:59;;;;;;;10.03;8.60;;;5.10;49.70;;;;;;5013536;28;20468;-70
2022/03/09 05:29:26;;;;;;;8.53;6.77;;;5.10;49.60;;;;;;5013597;28;20450;-73
2022/03/09 05:31:54;;;;;;;12.33;8.10;;;5.10;49.80;;;;;;5013522;28;20443;-72
2022/03/09 05:34:21;;;;;;;12.50;8.70;;;5.10;49.80;;;;;;5013316;28;20981;-72
2022/03/09 05:36:48;;;;;;;12.87;8.07;;;5.10;49.60;;;;;;5013140;28;20499;-73
2022/03/09 05:39:14;;;;;;;15.60;8.40;;;5.20;49.60;;;;;;5013591;28;20458;-72
2022/03/09 05:41:41;;;;;;;15.33;9.17;;;5.20;49.50;;;;;;5013554;28;20447;-72
2022/03/09 05:44:08;;;;;;;11.93;8.10;;;5.20;49.50;;;;;;5013635;28;20428;-72
2022/03/09 05:46:35;;;;;;;11.00;9.23;;;5.20;50.00;;;;;;5013419;28;20476;-72
2022/03/09 05:49:03;;;;;;;9.17;7.50;;;5.20;49.40;;;;;;5013361;28;20862;-72
2022/03/09 05:51:30;;;;;;;15.13;9.50;;;5.20;49.90;;;;;;5014730;28;20447;-72
2022/03/09 05:53:56;;;;;;;13.10;8.10;;;5.20;49.50;;;;;;5017317;28;20854;-72
2022/03/09 05:56:24;;;;;;;11.53;8.17;;;5.20;49.60;;;;;;5017077;28;20495;-72
2022/03/09 05:58:51;;;;;;;12.93;8.80;;;5.10;49.60;;;;;;5017116;28;20447;-72
2022/03/09 06:01:17;;;;;;;12.53;8.57;;;5.20;49.60;;;;;;5016796;28;20933;-72
2022/03/09 06:03:44;;;;;;;12.60;8.53;;;5.20;49.40;;;;;;5017099;28;20447;-72
2022/03/09 06:06:12;;;;;;;10.63;7.77;;;5.20;49.10;;;;;;5016937;28;20463;-72
2022/03/09 06:08:39;;;;;;;15.20;7.83;;;5.20;49.10;;;;;;5016990;28;20454;-72
2022/03/09 06:11:06;;;;;;;20.30;8.97;;;5.20;49.10;;;;;;5016957;28;20451;-72
2022/03/09 06:13:32;;;;;;;15.10;10.00;;;5.20;49.10;;;;;;5016863;28;20455;-72
2022/03/09 06:15:59;;;;;;;15.07;11.50;;;5.20;49.10;;;;;;5016400;28;20489;-72
2022/03/09 06:18:26;;;;;;;13.27;10.20;;;5.20;49.20;;;;;;5016756;28;20451;-72
2022/03/09 06:20:52;;;;;;;9.50;8.20;;;5.30;49.20;;;;;;5016435;28;20817;-72
2022/03/09 06:23:20;;;;;;;10.07;8.20;;;5.30;48.90;;;;;;5016432;28;20515;-72
2022/03/09 06:25:47;;;;;;;12.07;8.70;;;5.30;48.90;;;;;;5016565;28;20447;-72
2022/03/09 06:28:15;;;;;;;10.97;8.70;;;5.30;48.90;;;;;;5016355;28;20443;-72
2022/03/09 06:30:42;;;;;;;13.63;8.00;;;5.30;48.80;;;;;;5016509;28;20453;-72
2022/03/09 06:33:09;;;;;;;13.97;8.67;;;5.30;48.90;;;;;;5016535;28;20435;-72
2022/03/09 06:35:35;;;;;;;14.70;8.47;;;5.30;48.90;;;;;;5016049;28;20491;-72
2022/03/09 06:38:02;;;;;;;12.83;8.57;;;5.30;49.00;;;;;;5016394;28;20458;-72
2022/03/09 06:40:30;;;;;;;14.43;8.60;;;5.30;48.90;;;;;;5016392;28;20439;-72
2022/03/09 06:42:59;;;;;;;12.30;8.30;;;5.30;48.90;;;;;;5016401;28;20455;-72
2022/03/09 06:45:26;;;;;;;14.40;8.43;;;5.30;48.90;;;;;;5015928;28;20443;-72
2022/03/09 06:47:53;;;;;;;11.67;7.93;;;5.30;48.70;;;;;;5016201;28;20471;-72
2022/03/09 06:50:20;;;;;;;11.20;7.20;;;5.30;48.70;;;;;;5016710;28;20427;-72
2022/03/09 06:52:47;;;;;;;10.40;7.70;;;5.30;48.70;;;;;;5015879;28;20451;-72
2022/03/09 06:55:14;;;;;;;12.00;8.37;;;5.30;48.80;;;;;;5015711;28;20974;-72
2022/03/09 06:57:42;;;;;;;11.03;8.33;;;5.30;48.80;;;;;;5015732;28;20463;-72
2022/03/09 07:00:12;;;;;;;8.80;6.73;;;5.40;48.70;;;;;;5016067;28;20511;-72
2022/03/09 07:02:39;;;;;;;9.83;8.07;;;5.40;48.90;;;;;;5015889;28;20447;-72
2022/03/09 07:05:06;;;;;;;10.07;6.83;;;5.40;48.70;;;;;;5016579;28;20446;-72
2022/03/09 07:07:33;;;;;;;11.60;6.97;;;5.50;48.60;;;;;;5015796;28;20471;-72
2022/03/09 07:10:00;;;;;;;8.80;7.13;;;5.50;48.20;;;;;;5015975;28;20830;-72
2022/03/09 07:12:27;;;;;;;10.27;7.17;;;5.60;48.20;;;;;;5015832;28;20462;-72
2022/03/09 07:14:55;;;;;;;10.77;7.73;;;5.60;48.10;;;;;;5015552;28;20454;-72
2022/03/09 07:17:22;;;;;;;8.77;7.10;;;5.60;48.00;;;;;;5015643;28;20491;-72
2022/03/09 07:19:49;;;;;;;13.17;7.40;;;5.70;47.90;;;;;;5015391;28;20451;-72
2022/03/09 07:22:15;;;;;;;11.50;7.67;;;5.70;48.10;;;;;;5015621;28;20455;-72
2022/03/09 07:24:42;;;;;;;12.40;8.20;;;5.80;48.10;;;;;;5015661;28;20554;-72
2022/03/09 07:27:09;;;;;;;9.50;7.83;;;5.80;48.00;;;;;;5015562;28;20547;-72
2022/03/09 07:29:36;;;;;;;9.03;7.10;;;5.90;48.00;;;;;;5015572;28;20494;-72
2022/03/09 07:32:05;;;;;;;10.10;8.03;;;5.90;47.70;;;;;;5015088;28;20954;-72
2022/03/09 07:34:32;;;;;;;14.23;7.13;;;6.00;47.70;;;;;;5015447;28;20451;-72
2022/03/09 07:36:59;;;;;;;10.83;7.40;;;6.10;47.70;;;;;;5014910;28;20539;-72
2022/03/09 07:39:27;;;;;;;14.50;8.07;;;6.10;47.50;;;;;;5015300;28;20459;-72
2022/03/09 07:41:54;;;;;;;18.07;8.77;;;6.20;48.00;;;;;;5015206;28;20451;-72
2022/03/09 07:44:21;;;;;;;9.00;7.20;;;6.30;47.40;;;;;;5015298;28;20474;-72
2022/03/09 07:46:48;;;;;;;10.63;6.80;;;6.40;47.00;;;;;;5015077;28;20471;-72
2022/03/09 07:49:16;;;;;;;8.90;8.00;;;6.40;46.90;;;;;;5015176;28;20443;-72
2022/03/09 07:51:43;;;;;;;7.70;6.90;;;6.50;46.90;;;;;;5015062;28;20440;-72
2022/03/09 07:54:10;;;;;;;10.20;7.30;;;6.60;46.80;;;;;;5015056;28;20502;-72
2022/03/09 07:56:37;;;;;;;11.33;7.80;;;6.70;46.80;;;;;;5014831;28;20495;-72
2022/03/09 07:59:05;;;;;;;8.53;7.33;;;6.80;46.70;;;;;;5014916;28;20456;-73
2022/03/09 08:01:32;;;;;;;10.40;6.83;;;6.80;46.50;;;;;;5014910;28;20447;-73
2022/03/09 08:03:58;;;;;;;10.70;8.40;;;6.90;46.50;;;;;;5014831;28;20858;-73
2022/03/09 08:06:27;;;;;;;8.27;6.80;;;7.00;46.40;;;;;;5014730;28;20459;-73
2022/03/09 08:08:54;;;;;;;12.33;7.87;;;7.10;46.10;;;;;;5014468;28;20458;-73
2022/03/09 08:11:22;;;;;;;8.20;6.97;;;7.20;45.70;;;;;;5014662;28;20447;-73
2022/03/09 08:13:49;;;;;;;12.10;6.80;;;7.30;45.50;;;;;;5014303;28;20458;-73
2022/03/09 08:16:16;;;;;;;10.70;7.50;;;7.40;45.50;;;;;;5014536;28;20491;-73
2022/03/09 08:18:42;;;;;;;11.87;7.63;;;7.40;45.30;;;;;;5014743;28;20447;-73
2022/03/09 08:21:09;;;;;;;9.50;6.20;;;7.50;44.90;;;;;;5014608;28;20451;-72
2022/03/09 08:23:37;;;;;;;12.47;8.30;;;7.60;44.90;;;;;;5014235;28;20451;-73
2022/03/09 08:26:04;;;;;;;9.80;7.50;;;7.70;44.80;;;;;;5014531;28;20463;-73
2022/03/09 08:28:30;;;;;;;9.53;7.17;;;7.80;44.70;;;;;;5014228;28;20934;-73
2022/03/09 08:30:57;;;;;;;8.90;7.60;;;7.80;44.40;;;;;;5014405;28;20531;-73
2022/03/09 08:33:24;;;;;;;8.50;7.07;;;7.90;44.30;;;;;;5014428;28;20469;-73
2022/03/09 08:35:52;;;;;;;8.20;7.30;;;7.90;44.60;;;;;;5013989;28;20498;-73
2022/03/09 08:38:19;;;;;;;9.27;7.40;;;8.00;44.70;;;;;;5014280;28;20447;-73
2022/03/09 08:40:47;;;;;;;9.37;7.43;;;8.10;44.40;;;;;;5013894;28;20958;-73
2022/03/09 08:43:14;;;;;;;11.50;8.10;;;8.10;44.10;;;;;;5014225;28;20504;-72
2022/03/09 08:45:40;;;;;;;8.90;7.70;;;8.20;44.10;;;;;;5014048;28;20462;-72
2022/03/09 08:48:07;;;;;;;8.73;7.47;;;8.20;44.00;;;;;;5014069;28;20454;-72
2022/03/09 08:50:34;;;;;;;10.50;8.27;;;8.30;44.00;;;;;;5014105;28;20435;-73
2022/03/09 08:53:01;;;;;;;9.77;7.67;;;8.40;43.40;;;;;;5014009;28;20455;-73
2022/03/09 08:55:28;;;;;;;10.40;7.93;;;8.40;43.50;;;;;;5013974;28;20451;-73
2022/03/09 08:57:57;;;;;;;11.70;8.30;;;8.50;43.60;;;;;;5013767;28;20502;-73
2022/03/09 09:00:24;;;;;;;9.37;7.50;;;8.50;43.10;;;;;;5013923;28;20487;-73
2022/03/09 09:02:52;;;;;;;11.03;8.13;;;8.60;43.20;;;;;;5013983;28;20454;-73
2022/03/09 09:05:19;;;;;;;9.80;8.10;;;8.60;43.00;;;;;;5013889;28;20486;-73
2022/03/09 09:07:46;;;;;;;11.67;8.13;;;8.70;43.10;;;;;;5013440;28;20463;-73
2022/03/09 09:10:12;;;;;;;11.90;8.10;;;8.70;42.90;;;;;;5013807;28;20517;-73
2022/03/09 09:12:39;;;;;;;12.00;8.70;;;8.80;42.90;;;;;;5013852;28;20824;-73
2022/03/09 09:15:08;;;;;;;10.07;8.07;;;8.80;43.30;;;;;;5013771;28;20493;-73
2022/03/09 09:17:35;;;;;;;11.60;8.90;;;8.90;43.30;;;;;;5013872;28;20593;-72
2022/03/09 09:20:02;;;;;;;10.80;7.87;;;9.00;43.30;;;;;;5013820;28;20617;-73
2022/03/09 09:22:29;;;;;;;11.30;9.03;;;9.10;43.10;;;;;;5013764;28;20443;-73
2022/03/09 09:24:55;;;;;;;12.27;7.83;;;9.20;43.30;;;;;;5013670;28;20462;-73
2022/03/09 09:27:22;;;;;;;9.97;8.07;;;9.20;42.80;;;;;;5015871;28;21013;-73
2022/03/09 09:29:49;;;;;;;11.23;8.20;;;9.30;42.60;;;;;;5017771;28;20450;-73
2022/03/09 09:32:17;;;;;;;22.00;9.83;;;9.40;42.50;;;;;;5017409;28;20945;-73
2022/03/09 09:34:43;;;;;;;11.57;8.43;;;9.50;42.30;;;;;;5017655;28;20462;-73
2022/03/09 09:37:10;;;;;;;10.43;8.93;;;9.60;41.90;;;;;;5017068;28;21005;-73
2022/03/09 09:39:37;;;;;;;13.07;9.53;;;9.70;41.30;;;;;;5017270;28;20459;-73
2022/03/09 09:42:05;;;;;;;12.63;10.20;;;9.80;41.20;;;;;;5017532;28;20435;-73
2022/03/09 09:44:32;;;;;;;14.63;9.67;;;9.90;40.80;;;;;;5017573;28;20451;-73
2022/03/09 09:46:59;;;;;;;13.23;9.80;;;10.00;39.30;;;;;;5018052;28;20521;-73
2022/03/09 09:49:29;;;;;;;9.80;8.80;;;10.10;38.90;;;;;;5017423;28;20455;-73
2022/03/09 09:51:56;;;;;;;14.43;9.70;;;10.20;39.00;;;;;;5017409;28;20444;-73
2022/03/09 09:54:23;;;;;;;12.10;9.60;;;10.30;37.30;;;;;;5017322;28;20546;-73
2022/03/09 09:56:51;;;;;;;11.87;9.40;;;10.40;38.10;;;;;;5017178;28;20485;-73
2022/03/09 09:59:17;;;;;;;13.77;10.60;;;10.50;37.60;;;;;;5017189;28;20505;-73
2022/03/09 10:01:44;;;;;;;11.57;9.10;;;10.60;37.30;;;;;;5017204;28;20457;-73
2022/03/09 10:04:11;;;;;;;13.13;10.23;;;10.80;36.90;;;;;;5016842;28;20930;-73
2022/03/09 10:06:39;;;;;;;10.80;9.70;;;11.00;37.00;;;;;;5017005;28;20471;-73
2022/03/09 10:09:07;;;;;;;15.27;9.60;;;11.20;36.70;;;;;;5016809;28;20922;-73
2022/03/09 10:11:48;;;;;;;14.23;9.80;;;11.50;36.70;;;;;;5017105;28;20837;-73
2022/03/09 10:14:17;;;;;;;11.60;10.23;;;11.90;35.70;;;;;;5016907;28;20461;-73
2022/03/09 10:17:04;;;;;;;10.63;9.10;;;12.30;34.70;;;;;;5016850;28;20498;-73
2022/03/09 10:19:33;;;;;;;10.80;9.53;;;12.80;34.50;;;;;;5017007;28;20451;-73
2022/03/09 10:22:22;;;;;;;13.27;10.50;;;13.30;34.20;;;;;;5016620;28;21002;-73
2022/03/09 10:24:49;;;;;;;10.93;8.97;;;13.80;31.50;;;;;;5016911;28;20479;-73
2022/03/09 10:27:36;;;;;;;11.27;10.17;;;14.20;31.70;;;;;;5016713;28;20479;-73
2022/03/09 10:30:06;;;;;;;11.53;9.40;;;14.70;32.20;;;;;;5016421;28;20427;-73
2022/03/09 10:32:43;;;;;;;11.70;10.43;;;15.20;31.10;;;;;;5016659;28;20458;-73
2022/03/09 10:35:10;;;;;;;12.07;10.20;;;15.80;30.80;;;;;;5016444;28;20458;-73
2022/03/09 10:37:43;;;;;;;12.13;10.70;;;16.40;30.40;;;;;;5016216;28;20487;-73
2022/03/09 10:40:11;;;;;;;14.30;10.73;;;16.90;29.60;;;;;;5016576;28;20801;-73
2022/03/09 10:42:38;;;;;;;13.30;10.93;;;17.50;29.00;;;;;;5016531;28;20478;-73
2022/03/09 10:45:07;;;;;;;12.70;10.07;;;18.00;27.90;;;;;;5016415;28;20455;-73
2022/03/09 10:47:35;;;;;;;12.30;11.10;;;18.50;26.80;;;;;;5016324;28;20468;-73
2022/03/09 10:50:14;;;;;;;12.73;11.07;;;18.90;26.80;;;;;;5016272;28;20449;-73
2022/03/09 10:52:50;;;;;;;18.07;11.77;;;19.40;26.80;;;;;;5016040;28;20849;-73
2022/03/09 10:55:25;;;;;;;11.70;10.50;;;20.00;25.80;;;;;;5016274;28;20446;-73
2022/03/09 10:57:52;;;;;;;14.40;11.43;;;20.50;25.30;;;;;;5015676;28;20863;-73
2022/03/09 11:00:37;;;;;;;12.43;11.33;;;21.10;24.90;;;;;;5016104;28;20473;-73
2022/03/09 11:03:09;;;;;;;13.70;11.30;;;21.70;24.10;;;;;;5016496;28;20766;-73
2022/03/09 11:05:36;;;;;;;14.20;12.70;;;22.20;23.80;;;;;;5015980;28;20451;-73
2022/03/09 11:08:05;;;;;;;14.57;11.40;;;22.60;22.20;;;;;;5016020;28;20446;-73
2022/03/09 11:10:33;;;;;;;12.77;11.47;;;22.80;21.60;;;;;;5016037;28;20569;-73
2022/03/09 11:13:00;;;;;;;13.03;11.70;;;22.90;22.20;;;;;;5015855;28;20454;-73
2022/03/09 11:15:28;;;;;;;14.30;10.77;;;23.20;22.60;;;;;;5015801;28;20447;-73
2022/03/09 11:17:55;;;;;;;11.30;10.20;;;23.60;22.30;;;;;;5015554;28;21008;-73
2022/03/09 11:20:22;;;;;;;12.93;11.73;;;24.00;22.00;;;;;;5016142;28;20447;-73
2022/03/09 11:22:50;;;;;;;12.23;11.07;;;24.50;21.70;;;;;;5015703;28;20450;-73
2022/03/09 11:25:24;;;;;;;13.07;11.80;;;24.90;21.40;;;;;;5015662;28;20463;-73
2022/03/09 11:27:53;;;;;;;11.60;10.43;;;25.40;21.10;;;;;;5015594;28;20509;-73
2022/03/09 11:30:25;;;;;;;12.90;11.60;;;25.70;20.50;;;;;;5015232;28;20459;-73
2022/03/09 11:32:54;;;;;;;13.20;12.00;;;26.20;20.20;;;;;;5015471;28;20537;-73
2022/03/09 11:35:39;;;;;;;12.33;11.23;;;26.50;18.50;;;;;;5014980;28;21027;-73
2022/03/09 11:38:40;;;;;;;21.13;13.50;;;26.70;18.70;;;;;;5014740;28;20483;-73
2022/03/09 11:41:21;;;;;;;15.07;12.50;;;26.80;18.50;;;;;;5012068;28;20533;-73
2022/03/09 11:43:48;;;;;;;14.23;12.77;;;27.20;19.10;;;;;;5015035;28;20427;-74
2022/03/09 11:46:16;;;;;;;13.23;12.00;;;27.50;17.40;;;;;;5015154;28;20463;-73
2022/03/09 11:48:53;;;;;;;13.40;12.20;;;27.50;16.80;;;;;;5014524;28;20471;-73
2022/03/09 11:51:21;;;;;;;13.50;12.20;;;27.50;17.20;;;;;;5015053;28;20446;-74
2022/03/09 11:53:50;;;;;;;14.20;12.73;;;27.50;17.50;;;;;;5014690;28;20451;-74
2022/03/09 11:56:30;;;;;;;14.70;12.30;;;27.70;17.10;;;;;;5014835;28;20828;-74
2022/03/09 11:59:14;;;;;;;13.77;12.33;;;28.20;17.20;;;;;;5015662;28;20439;-74
2022/03/09 12:02:13;;;;;;;19.80;13.77;;;28.50;16.90;;;;;;5014481;28;20840;-74
2022/03/09 12:04:49;;;;;;;14.73;13.40;;;28.80;15.80;;;;;;5014767;28;20431;-72
2022/03/09 12:07:49;;;;;;;13.37;12.17;;;29.10;16.80;;;;;;5014581;28;20470;-72
2022/03/09 12:10:16;;;;;;;14.50;13.03;;;29.80;16.30;;;;;;5014699;28;20431;-72
2022/03/09 12:13:15;;;;;;;13.77;12.50;;;30.20;15.30;;;;;;5014593;28;20454;-72
2022/03/09 12:16:05;;;;;;;15.60;14.30;;;30.60;15.90;;;;;;5014536;28;20438;-72
2022/03/09 12:18:42;;;;;;;16.17;14.77;;;31.00;14.60;;;;;;5014234;28;21051;-73
2022/03/09 12:21:11;;;;;;;16.37;14.87;;;31.20;14.30;;;;;;5015059;28;20427;-73
2022/03/09 12:24:26;;;;;;;16.07;14.67;;;31.30;13.80;;;;;;5014424;28;20446;-72
2022/03/09 12:26:54;;;;;;;16.37;14.97;;;31.30;13.80;;;;;;5014412;28;20706;-73
2022/03/09 12:29:39;;;;;;;16.03;14.70;;;31.60;14.50;;;;;;5014308;28;20537;-73
2022/03/09 12:32:12;;;;;;;17.33;15.67;;;32.00;14.70;;;;;;5014465;28;20442;-73
2022/03/09 12:34:42;;;;;;;16.53;15.13;;;32.40;15.00;;;;;;5014149;28;20482;-72
2022/03/09 12:37:11;;;;;;;20.63;18.60;;;32.90;14.50;;;;;;5013798;28;20486;-73
2022/03/09 12:39:40;;;;;;;19.60;17.80;;;33.30;12.70;;;;;;5014223;28;20433;-73
2022/03/09 12:42:08;;;;;;;17.67;16.07;;;33.40;12.50;;;;;;5014092;28;20443;-73
2022/03/09 12:44:37;;;;;;;20.63;16.30;;;33.30;12.90;;;;;;5014052;28;20469;-72
2022/03/09 12:47:06;;;;;;;18.87;17.17;;;33.40;13.30;;;;;;5014102;28;20502;-72
2022/03/09 12:49:36;;;;;;;23.20;16.43;;;33.70;13.20;;;;;;5013791;28;20813;-73
2022/03/09 12:52:07;;;;;;;19.77;18.00;;;34.00;12.90;;;;;;5014145;28;20431;-73